sensor_id;sensor_type;location;lat;lon;timestamp;pressure;altitude;pressure_sealevel;temperature;humidity
34237;BME280;20501;45.956;13.632;2022-08-03T00:01:02;63816.28;;;-148.00;100.00
34237;BME280;20501;45.956;13.632;2022-08-03T00:03:27;63816.28;;;-148.00;100.00
34237;BME280;20501;45.956;13.632;2022-08-03T00:05:52;63816.28;;;-148.00;100.00
34237;BME280;20501;45.956;13.632;2022-08-03T00:08:18;63816.28;;;-148.00;100.00
34237;BME280;20501;45.956;13.632;2022-08-03T00:10:43;63816.28;;;-148.00;100.00
34237;BME280;20501;45.956;13.632;2022-08-03T00:13:09;63816.28;;;-148.00;100.00
34237;BME280;20501;45.956;13.632;2022-08-03T00:15:38;63816.28;;;-148.00;100.00
34237;BME280;20501;45.956;13.632;2022-08-03T00:18:03;63816.28;;;-148.00;100.00
34237;BME280;20501;45.956;13.632;2022-08-03T00:20:29;63816.28;;;-148.00;100.00
34237;BME280;20501;45.956;13.632;2022-08-03T00:22:54;63816.28;;;-148.00;100.00
34237;BME280;20501;45.956;13.632;2022-08-03T00:25:20;63816.28;;;-148.00;100.00
34237;BME280;20501;45.956;13.632;2022-08-03T00:27:45;63816.28;;;-148.00;100.00
34237;BME280;20501;45.956;13.632;2022-08-03T00:30:10;63816.28;;;-148.00;100.00
34237;BME280;20501;45.956;13.632;2022-08-03T00:32:36;63816.28;;;-148.00;100.00
34237;BME280;20501;45.956;13.632;2022-08-03T00:35:01;63816.28;;;-148.00;100.00
34237;BME280;20501;45.956;13.632;2022-08-03T00:37:27;63816.28;;;-148.00;100.00
34237;BME280;20501;45.956;13.632;2022-08-03T00:39:52;63816.28;;;-148.00;100.00
34237;BME280;20501;45.956;13.632;2022-08-03T00:42:18;63816.28;;;-148.00;100.00
34237;BME280;20501;45.956;13.632;2022-08-03T00:44:43;63816.28;;;-148.00;100.00
34237;BME280;20501;45.956;13.632;2022-08-03T00:47:27;63816.28;;;-148.00;100.00
34237;BME280;20501;45.956;13.632;2022-08-03T00:49:52;63816.28;;;-148.00;100.00
34237;BME280;20501;45.956;13.632;2022-08-03T00:52:17;63816.28;;;-148.00;100.00
34237;BME280;20501;45.956;13.632;2022-08-03T00:54:43;63816.28;;;-148.00;100.00
34237;BME280;20501;45.956;13.632;2022-08-03T00:57:09;63816.28;;;-148.00;100.00
34237;BME280;20501;45.956;13.632;2022-08-03T00:59:35;63816.28;;;-148.00;100.00
34237;BME280;20501;45.956;13.632;2022-08-03T01:02:02;63816.28;;;-148.00;100.00
34237;BME280;20501;45.956;13.632;2022-08-03T01:04:27;63816.28;;;-148.00;100.00
34237;BME280;20501;45.956;13.632;2022-08-03T01:09:49;63816.28;;;-148.00;100.00
34237;BME280;20501;45.956;13.632;2022-08-03T01:15:23;63816.28;;;-148.00;100.00
34237;BME280;20501;45.956;13.632;2022-08-03T01:17:55;63816.28;;;-148.00;100.00
34237;BME280;20501;45.956;13.632;2022-08-03T01:20:23;63816.28;;;-148.00;100.00
34237;BME280;20501;45.956;13.632;2022-08-03T01:31:50;63816.28;;;-148.00;100.00
34237;BME280;20501;45.956;13.632;2022-08-03T01:34:18;63816.28;;;-148.00;100.00
34237;BME280;20501;45.956;13.632;2022-08-03T01:36:55;63816.28;;;-148.00;100.00
34237;BME280;20501;45.956;13.632;2022-08-03T01:39:24;63816.28;;;-148.00;100.00
34237;BME280;20501;45.956;13.632;2022-08-03T01:42:03;63816.28;;;-148.00;100.00
34237;BME280;20501;45.956;13.632;2022-08-03T01:44:39;63816.28;;;-148.00;100.00
34237;BME280;20501;45.956;13.632;2022-08-03T01:47:06;63816.28;;;-148.00;100.00
34237;BME280;20501;45.956;13.632;2022-08-03T01:49:43;63816.28;;;-148.00;100.00
34237;BME280;20501;45.956;13.632;2022-08-03T01:52:10;63816.28;;;-148.00;100.00
34237;BME280;20501;45.956;13.632;2022-08-03T01:54:41;63816.28;;;-148.00;100.00
34237;BME280;20501;45.956;13.632;2022-08-03T01:57:08;63816.28;;;-148.00;100.00
34237;BME280;20501;45.956;13.632;2022-08-03T01:59:35;63816.28;;;-148.00;100.00
34237;BME280;20501;45.956;13.632;2022-08-03T02:02:02;63816.28;;;-148.00;100.00
34237;BME280;20501;45.956;13.632;2022-08-03T02:04:28;63816.28;;;-148.00;100.00
34237;BME280;20501;45.956;13.632;2022-08-03T02:06:54;63816.28;;;-148.00;100.00
34237;BME280;20501;45.956;13.632;2022-08-03T02:09:22;63816.28;;;-148.00;100.00
34237;BME280;20501;45.956;13.632;2022-08-03T02:11:48;63816.28;;;-148.00;100.00
34237;BME280;20501;45.956;13.632;2022-08-03T02:14:16;63816.28;;;-148.00;100.00
34237;BME280;20501;45.956;13.632;2022-08-03T02:16:43;63816.28;;;-148.00;100.00
34237;BME280;20501;45.956;13.632;2022-08-03T02:19:10;63816.28;;;-148.00;100.00
34237;BME280;20501;45.956;13.632;2022-08-03T02:21:36;63816.28;;;-148.00;100.00
34237;BME280;20501;45.956;13.632;2022-08-03T02:24:03;63816.28;;;-148.00;100.00
34237;BME280;20501;45.956;13.632;2022-08-03T02:26:30;63816.28;;;-148.00;100.00
34237;BME280;20501;45.956;13.632;2022-08-03T02:29:00;63816.28;;;-148.00;100.00
34237;BME280;20501;45.956;13.632;2022-08-03T02:34:11;63816.28;;;-148.00;100.00
34237;BME280;20501;45.956;13.632;2022-08-03T02:36:37;63816.28;;;-148.00;100.00
34237;BME280;20501;45.956;13.632;2022-08-03T02:39:04;63816.28;;;-148.00;100.00
34237;BME280;20501;45.956;13.632;2022-08-03T02:41:40;63816.28;;;-148.00;100.00
34237;BME280;20501;45.956;13.632;2022-08-03T02:44:08;63816.28;;;-148.00;100.00
34237;BME280;20501;45.956;13.632;2022-08-03T02:46:40;63816.28;;;-148.00;100.00
34237;BME280;20501;45.956;13.632;2022-08-03T02:49:07;63816.28;;;-148.00;100.00
34237;BME280;20501;45.956;13.632;2022-08-03T02:51:35;63816.28;;;-148.00;100.00
34237;BME280;20501;45.956;13.632;2022-08-03T02:54:02;63816.28;;;-148.00;100.00
34237;BME280;20501;45.956;13.632;2022-08-03T02:56:29;63816.28;;;-148.00;100.00
34237;BME280;20501;45.956;13.632;2022-08-03T02:58:55;63816.28;;;-148.00;100.00
34237;BME280;20501;45.956;13.632;2022-08-03T03:01:24;63816.28;;;-148.00;100.00
34237;BME280;20501;45.956;13.632;2022-08-03T03:03:51;63816.28;;;-148.00;100.00
34237;BME280;20501;45.956;13.632;2022-08-03T03:06:18;63816.28;;;-148.00;100.00
34237;BME280;20501;45.956;13.632;2022-08-03T03:08:45;63816.28;;;-148.00;100.00
34237;BME280;20501;45.956;13.632;2022-08-03T03:11:13;63816.28;;;-148.00;100.00
34237;BME280;20501;45.956;13.632;2022-08-03T03:13:41;63816.28;;;-148.00;100.00
34237;BME280;20501;45.956;13.632;2022-08-03T03:16:07;63816.28;;;-148.00;100.00
34237;BME280;20501;45.956;13.632;2022-08-03T03:18:33;63816.28;;;-148.00;100.00
34237;BME280;20501;45.956;13.632;2022-08-03T03:21:00;63816.28;;;-148.00;100.00
34237;BME280;20501;45.956;13.632;2022-08-03T03:23:27;63816.28;;;-148.00;100.00
34237;BME280;20501;45.956;13.632;2022-08-03T03:25:54;63816.28;;;-148.00;100.00
34237;BME280;20501;45.956;13.632;2022-08-03T03:28:22;63816.28;;;-148.00;100.00
34237;BME280;20501;45.956;13.632;2022-08-03T03:30:48;63816.28;;;-148.00;100.00
34237;BME280;20501;45.956;13.632;2022-08-03T03:33:13;63816.28;;;-148.00;100.00
34237;BME280;20501;45.956;13.632;2022-08-03T03:35:40;63816.28;;;-148.00;100.00
34237;BME280;20501;45.956;13.632;2022-08-03T03:38:07;63816.28;;;-148.00;100.00
34237;BME280;20501;45.956;13.632;2022-08-03T03:40:37;63816.28;;;-148.00;100.00
34237;BME280;20501;45.956;13.632;2022-08-03T03:43:06;63816.28;;;-148.00;100.00
34237;BME280;20501;45.956;13.632;2022-08-03T03:45:33;63816.28;;;-148.00;100.00
34237;BME280;20501;45.956;13.632;2022-08-03T03:48:00;63816.28;;;-148.00;100.00
34237;BME280;20501;45.956;13.632;2022-08-03T03:50:26;63816.28;;;-148.00;100.00
34237;BME280;20501;45.956;13.632;2022-08-03T03:52:51;63816.28;;;-148.00;100.00
34237;BME280;20501;45.956;13.632;2022-08-03T03:55:17;63816.28;;;-148.00;100.00
34237;BME280;20501;45.956;13.632;2022-08-03T03:57:43;63816.28;;;-148.00;100.00
34237;BME280;20501;45.956;13.632;2022-08-03T04:00:10;63816.28;;;-148.00;100.00
34237;BME280;20501;45.956;13.632;2022-08-03T04:02:36;63816.28;;;-148.00;100.00
34237;BME280;20501;45.956;13.632;2022-08-03T04:05:01;63816.28;;;-148.00;100.00
34237;BME280;20501;45.956;13.632;2022-08-03T04:08:08;63816.28;;;-148.00;100.00
34237;BME280;20501;45.956;13.632;2022-08-03T04:11:06;63816.28;;;-148.00;100.00
34237;BME280;20501;45.956;13.632;2022-08-03T04:13:36;63816.28;;;-148.00;100.00
34237;BME280;20501;45.956;13.632;2022-08-03T04:16:04;63816.28;;;-148.00;100.00
34237;BME280;20501;45.956;13.632;2022-08-03T04:18:33;63816.28;;;-148.00;100.00
34237;BME280;20501;45.956;13.632;2022-08-03T04:21:02;63816.28;;;-148.00;100.00
34237;BME280;20501;45.956;13.632;2022-08-03T04:23:32;63816.28;;;-148.00;100.00
34237;BME280;20501;45.956;13.632;2022-08-03T04:26:01;63816.28;;;-148.00;100.00
34237;BME280;20501;45.956;13.632;2022-08-03T04:28:27;63816.28;;;-148.00;100.00
34237;BME280;20501;45.956;13.632;2022-08-03T04:30:56;63816.28;;;-148.00;100.00
34237;BME280;20501;45.956;13.632;2022-08-03T04:33:25;63816.28;;;-148.00;100.00
34237;BME280;20501;45.956;13.632;2022-08-03T04:35:51;63816.28;;;-148.00;100.00
34237;BME280;20501;45.956;13.632;2022-08-03T04:38:19;63816.28;;;-148.00;100.00
34237;BME280;20501;45.956;13.632;2022-08-03T04:40:47;63816.28;;;-148.00;100.00
34237;BME280;20501;45.956;13.632;2022-08-03T04:43:15;63816.28;;;-148.00;100.00
34237;BME280;20501;45.956;13.632;2022-08-03T04:45:42;63816.28;;;-148.00;100.00
34237;BME280;20501;45.956;13.632;2022-08-03T04:48:13;63816.28;;;-148.00;100.00
34237;BME280;20501;45.956;13.632;2022-08-03T04:50:39;63816.28;;;-148.00;100.00
34237;BME280;20501;45.956;13.632;2022-08-03T04:53:05;63816.28;;;-148.00;100.00
34237;BME280;20501;45.956;13.632;2022-08-03T04:55:33;63816.28;;;-148.00;100.00
34237;BME280;20501;45.956;13.632;2022-08-03T04:58:00;63816.28;;;-148.00;100.00
34237;BME280;20501;45.956;13.632;2022-08-03T05:00:27;63816.28;;;-148.00;100.00
34237;BME280;20501;45.956;13.632;2022-08-03T05:02:52;63816.28;;;-148.00;100.00
34237;BME280;20501;45.956;13.632;2022-08-03T05:05:18;63816.28;;;-148.00;100.00
34237;BME280;20501;45.956;13.632;2022-08-03T05:07:44;63816.28;;;-148.00;100.00
34237;BME280;20501;45.956;13.632;2022-08-03T05:10:11;63816.28;;;-148.00;100.00
34237;BME280;20501;45.956;13.632;2022-08-03T05:12:37;63816.28;;;-148.00;100.00
34237;BME280;20501;45.956;13.632;2022-08-03T05:15:03;63816.28;;;-148.00;100.00
34237;BME280;20501;45.956;13.632;2022-08-03T05:17:29;63816.28;;;-148.00;100.00
34237;BME280;20501;45.956;13.632;2022-08-03T05:19:55;63816.28;;;-148.00;100.00
34237;BME280;20501;45.956;13.632;2022-08-03T05:22:21;63816.28;;;-148.00;100.00
34237;BME280;20501;45.956;13.632;2022-08-03T05:24:46;63816.28;;;-148.00;100.00
34237;BME280;20501;45.956;13.632;2022-08-03T05:27:12;63816.28;;;-148.00;100.00
34237;BME280;20501;45.956;13.632;2022-08-03T05:29:58;63816.28;;;-148.00;100.00
34237;BME280;20501;45.956;13.632;2022-08-03T05:32:23;63816.28;;;-148.00;100.00
34237;BME280;20501;45.956;13.632;2022-08-03T05:34:48;63816.28;;;-148.00;100.00
34237;BME280;20501;45.956;13.632;2022-08-03T05:37:14;63816.28;;;-148.00;100.00
34237;BME280;20501;45.956;13.632;2022-08-03T05:39:39;63816.28;;;-148.00;100.00
34237;BME280;20501;45.956;13.632;2022-08-03T05:42:05;63816.28;;;-148.00;100.00
34237;BME280;20501;45.956;13.632;2022-08-03T05:44:30;63816.28;;;-148.00;100.00
34237;BME280;20501;45.956;13.632;2022-08-03T05:46:56;63816.28;;;-148.00;100.00
34237;BME280;20501;45.956;13.632;2022-08-03T05:49:22;63816.28;;;-148.00;100.00
34237;BME280;20501;45.956;13.632;2022-08-03T05:51:47;63816.28;;;-148.00;100.00
34237;BME280;20501;45.956;13.632;2022-08-03T05:54:13;63816.28;;;-148.00;100.00
34237;BME280;20501;45.956;13.632;2022-08-03T05:56:38;63816.28;;;-148.00;100.00
34237;BME280;20501;45.956;13.632;2022-08-03T05:59:07;63816.28;;;-148.00;100.00
34237;BME280;20501;45.956;13.632;2022-08-03T06:01:33;63816.28;;;-148.00;100.00
34237;BME280;20501;45.956;13.632;2022-08-03T06:03:58;63816.28;;;-148.00;100.00
34237;BME280;20501;45.956;13.632;2022-08-03T06:06:24;63816.28;;;-148.00;100.00
34237;BME280;20501;45.956;13.632;2022-08-03T06:08:49;63816.28;;;-148.00;100.00
34237;BME280;20501;45.956;13.632;2022-08-03T06:11:15;63816.28;;;-148.00;100.00
34237;BME280;20501;45.956;13.632;2022-08-03T06:13:41;63816.28;;;-148.00;100.00
34237;BME280;20501;45.956;13.632;2022-08-03T06:16:06;63816.28;;;-148.00;100.00
34237;BME280;20501;45.956;13.632;2022-08-03T06:18:32;63816.28;;;-148.00;100.00
34237;BME280;20501;45.956;13.632;2022-08-03T06:20:57;63816.28;;;-148.00;100.00
34237;BME280;20501;45.956;13.632;2022-08-03T06:23:23;63816.28;;;-148.00;100.00
34237;BME280;20501;45.956;13.632;2022-08-03T06:25:48;63816.28;;;-148.00;100.00
34237;BME280;20501;45.956;13.632;2022-08-03T06:28:13;63816.28;;;-148.00;100.00
34237;BME280;20501;45.956;13.632;2022-08-03T06:30:39;63816.28;;;-148.00;100.00
34237;BME280;20501;45.956;13.632;2022-08-03T06:33:05;63816.28;;;-148.00;100.00
34237;BME280;20501;45.956;13.632;2022-08-03T06:35:32;63816.28;;;-148.00;100.00
34237;BME280;20501;45.956;13.632;2022-08-03T06:37:57;63816.28;;;-148.00;100.00
34237;BME280;20501;45.956;13.632;2022-08-03T06:40:23;63816.28;;;-148.00;100.00
34237;BME280;20501;45.956;13.632;2022-08-03T06:42:54;63816.28;;;-148.00;100.00
34237;BME280;20501;45.956;13.632;2022-08-03T06:45:20;63816.28;;;-148.00;100.00
34237;BME280;20501;45.956;13.632;2022-08-03T06:47:45;63816.28;;;-148.00;100.00
34237;BME280;20501;45.956;13.632;2022-08-03T06:50:11;63816.28;;;-148.00;100.00
34237;BME280;20501;45.956;13.632;2022-08-03T06:52:36;63816.28;;;-148.00;100.00
34237;BME280;20501;45.956;13.632;2022-08-03T06:55:02;63816.28;;;-148.00;100.00
34237;BME280;20501;45.956;13.632;2022-08-03T06:57:28;63816.28;;;-148.00;100.00
34237;BME280;20501;45.956;13.632;2022-08-03T06:59:53;63816.28;;;-148.00;100.00
34237;BME280;20501;45.956;13.632;2022-08-03T07:02:20;63816.28;;;-148.00;100.00
34237;BME280;20501;45.956;13.632;2022-08-03T07:04:47;63816.28;;;-148.00;100.00
34237;BME280;20501;45.956;13.632;2022-08-03T07:07:20;63816.28;;;-148.00;100.00
34237;BME280;20501;45.956;13.632;2022-08-03T07:09:45;63816.28;;;-148.00;100.00
34237;BME280;20501;45.956;13.632;2022-08-03T07:12:12;63816.28;;;-148.00;100.00
34237;BME280;20501;45.956;13.632;2022-08-03T07:14:37;63816.28;;;-148.00;100.00
34237;BME280;20501;45.956;13.632;2022-08-03T07:17:03;63816.28;;;-148.00;100.00
34237;BME280;20501;45.956;13.632;2022-08-03T07:19:28;63816.28;;;-148.00;100.00
34237;BME280;20501;45.956;13.632;2022-08-03T07:21:54;63816.28;;;-148.00;100.00
34237;BME280;20501;45.956;13.632;2022-08-03T07:24:20;63816.28;;;-148.00;100.00
34237;BME280;20501;45.956;13.632;2022-08-03T07:26:45;63816.28;;;-148.00;100.00
34237;BME280;20501;45.956;13.632;2022-08-03T07:29:11;63816.28;;;-148.00;100.00
34237;BME280;20501;45.956;13.632;2022-08-03T07:31:36;63816.28;;;-148.00;100.00
34237;BME280;20501;45.956;13.632;2022-08-03T07:34:02;63816.28;;;-148.00;100.00
34237;BME280;20501;45.956;13.632;2022-08-03T07:36:28;63816.28;;;-148.00;100.00
34237;BME280;20501;45.956;13.632;2022-08-03T07:38:53;63816.28;;;-148.00;100.00
34237;BME280;20501;45.956;13.632;2022-08-03T07:41:18;63816.28;;;-148.00;100.00
34237;BME280;20501;45.956;13.632;2022-08-03T07:43:44;63816.28;;;-148.00;100.00
34237;BME280;20501;45.956;13.632;2022-08-03T07:46:09;63816.28;;;-148.00;100.00
34237;BME280;20501;45.956;13.632;2022-08-03T07:48:35;63816.28;;;-148.00;100.00
34237;BME280;20501;45.956;13.632;2022-08-03T07:51:00;63816.28;;;-148.00;100.00
34237;BME280;20501;45.956;13.632;2022-08-03T07:53:27;63816.28;;;-148.00;100.00
34237;BME280;20501;45.956;13.632;2022-08-03T07:55:53;63816.28;;;-148.00;100.00
34237;BME280;20501;45.956;13.632;2022-08-03T07:58:18;63816.28;;;-148.00;100.00
34237;BME280;20501;45.956;13.632;2022-08-03T08:00:44;63816.28;;;-148.00;100.00
34237;BME280;20501;45.956;13.632;2022-08-03T08:03:09;63816.28;;;-148.00;100.00
34237;BME280;20501;45.956;13.632;2022-08-03T08:05:35;63816.28;;;-148.00;100.00
34237;BME280;20501;45.956;13.632;2022-08-03T08:08:01;63816.28;;;-148.00;100.00
34237;BME280;20501;45.956;13.632;2022-08-03T08:10:27;63816.28;;;-148.00;100.00
34237;BME280;20501;45.956;13.632;2022-08-03T08:12:53;63816.28;;;-148.00;100.00
34237;BME280;20501;45.956;13.632;2022-08-03T08:15:19;63816.28;;;-148.00;100.00
34237;BME280;20501;45.956;13.632;2022-08-03T08:20:37;63816.28;;;-148.00;100.00
34237;BME280;20501;45.956;13.632;2022-08-03T08:23:06;63816.28;;;-148.00;100.00
34237;BME280;20501;45.956;13.632;2022-08-03T08:25:32;63816.28;;;-148.00;100.00
34237;BME280;20501;45.956;13.632;2022-08-03T08:27:59;63816.28;;;-148.00;100.00
34237;BME280;20501;45.956;13.632;2022-08-03T08:30:26;63816.28;;;-148.00;100.00
34237;BME280;20501;45.956;13.632;2022-08-03T08:32:52;63816.28;;;-148.00;100.00
34237;BME280;20501;45.956;13.632;2022-08-03T08:35:17;63816.28;;;-148.00;100.00
34237;BME280;20501;45.956;13.632;2022-08-03T08:37:44;63816.28;;;-148.00;100.00
34237;BME280;20501;45.956;13.632;2022-08-03T08:40:10;63816.28;;;-148.00;100.00
34237;BME280;20501;45.956;13.632;2022-08-03T08:42:38;63816.28;;;-148.00;100.00
34237;BME280;20501;45.956;13.632;2022-08-03T08:45:04;63816.28;;;-148.00;100.00
34237;BME280;20501;45.956;13.632;2022-08-03T08:47:33;63816.28;;;-148.00;100.00
34237;BME280;20501;45.956;13.632;2022-08-03T08:50:01;63816.28;;;-148.00;100.00
34237;BME280;20501;45.956;13.632;2022-08-03T08:52:28;63816.28;;;-148.00;100.00
34237;BME280;20501;45.956;13.632;2022-08-03T08:55:02;63816.28;;;-148.00;100.00
34237;BME280;20501;45.956;13.632;2022-08-03T08:57:30;63816.28;;;-148.00;100.00
34237;BME280;20501;45.956;13.632;2022-08-03T08:59:58;63816.28;;;-148.00;100.00
34237;BME280;20501;45.956;13.632;2022-08-03T09:02:24;63816.28;;;-148.00;100.00
34237;BME280;20501;45.956;13.632;2022-08-03T09:04:50;63816.28;;;-148.00;100.00
34237;BME280;20501;45.956;13.632;2022-08-03T09:07:16;63816.28;;;-148.00;100.00
34237;BME280;20501;45.956;13.632;2022-08-03T09:09:41;63816.28;;;-148.00;100.00
34237;BME280;20501;45.956;13.632;2022-08-03T09:12:07;63816.28;;;-148.00;100.00
34237;BME280;20501;45.956;13.632;2022-08-03T09:14:33;63816.28;;;-148.00;100.00
34237;BME280;20501;45.956;13.632;2022-08-03T09:17:00;63816.28;;;-148.00;100.00
34237;BME280;20501;45.956;13.632;2022-08-03T09:19:30;63816.28;;;-148.00;100.00
34237;BME280;20501;45.956;13.632;2022-08-03T09:22:12;63816.28;;;-148.00;100.00
34237;BME280;20501;45.956;13.632;2022-08-03T09:24:56;63816.28;;;-148.00;100.00
34237;BME280;20501;45.956;13.632;2022-08-03T09:27:23;63816.28;;;-148.00;100.00
34237;BME280;20501;45.956;13.632;2022-08-03T09:29:52;63816.28;;;-148.00;100.00
34237;BME280;20501;45.956;13.632;2022-08-03T09:32:23;63816.28;;;-148.00;100.00
34237;BME280;20501;45.956;13.632;2022-08-03T09:34:50;63816.28;;;-148.00;100.00
34237;BME280;20501;45.956;13.632;2022-08-03T09:37:17;63816.28;;;-148.00;100.00
34237;BME280;20501;45.956;13.632;2022-08-03T09:39:44;63816.28;;;-148.00;100.00
34237;BME280;20501;45.956;13.632;2022-08-03T09:42:16;63816.28;;;-148.00;100.00
34237;BME280;20501;45.956;13.632;2022-08-03T09:44:44;63816.28;;;-148.00;100.00
34237;BME280;20501;45.956;13.632;2022-08-03T09:47:12;63816.28;;;-148.00;100.00
34237;BME280;20501;45.956;13.632;2022-08-03T09:49:39;63816.28;;;-148.00;100.00
34237;BME280;20501;45.956;13.632;2022-08-03T09:52:16;63816.28;;;-148.00;100.00
34237;BME280;20501;45.956;13.632;2022-08-03T09:54:43;63816.28;;;-148.00;100.00
34237;BME280;20501;45.956;13.632;2022-08-03T09:57:23;63816.28;;;-148.00;100.00
34237;BME280;20501;45.956;13.632;2022-08-03T09:59:50;63816.28;;;-148.00;100.00
34237;BME280;20501;45.956;13.632;2022-08-03T10:02:23;63816.28;;;-148.00;100.00
34237;BME280;20501;45.956;13.632;2022-08-03T10:04:50;63816.28;;;-148.00;100.00
34237;BME280;20501;45.956;13.632;2022-08-03T10:07:18;63816.28;;;-148.00;100.00
34237;BME280;20501;45.956;13.632;2022-08-03T10:09:54;63816.28;;;-148.00;100.00
34237;BME280;20501;45.956;13.632;2022-08-03T10:12:20;63816.28;;;-148.00;100.00
34237;BME280;20501;45.956;13.632;2022-08-03T10:14:46;63816.28;;;-148.00;100.00
34237;BME280;20501;45.956;13.632;2022-08-03T10:17:12;63816.28;;;-148.00;100.00
34237;BME280;20501;45.956;13.632;2022-08-03T10:19:38;63816.28;;;-148.00;100.00
34237;BME280;20501;45.956;13.632;2022-08-03T10:22:11;63816.28;;;-148.00;100.00
34237;BME280;20501;45.956;13.632;2022-08-03T10:24:38;63816.28;;;-148.00;100.00
34237;BME280;20501;45.956;13.632;2022-08-03T10:28:19;100646.00;;;29.46;37.49
34237;BME280;20501;45.956;13.632;2022-08-03T10:30:51;100647.75;;;29.25;38.38
34237;BME280;20501;45.956;13.632;2022-08-03T10:33:26;100640.41;;;29.13;37.93
34237;BME280;20501;45.956;13.632;2022-08-03T10:35:55;100650.91;;;30.57;35.31
34237;BME280;20501;45.956;13.632;2022-08-03T10:38:25;100641.13;;;29.96;35.76
34237;BME280;20501;45.956;13.632;2022-08-03T10:40:53;100628.22;;;29.47;36.80
34237;BME280;20501;45.956;13.632;2022-08-03T10:43:25;100630.19;;;28.92;38.76
34237;BME280;20501;45.956;13.632;2022-08-03T10:45:51;100624.03;;;28.90;39.88
34237;BME280;20501;45.956;13.632;2022-08-03T10:48:18;100619.13;;;29.57;36.74
34237;BME280;20501;45.956;13.632;2022-08-03T10:50:45;100625.06;;;29.71;37.04
34237;BME280;20501;45.956;13.632;2022-08-03T10:53:10;100620.00;;;30.00;35.99
34237;BME280;20501;45.956;13.632;2022-08-03T10:55:41;100615.38;;;29.41;37.49
34237;BME280;20501;45.956;13.632;2022-08-03T10:58:51;100615.97;;;30.29;35.71
34237;BME280;20501;45.956;13.632;2022-08-03T11:01:18;100607.28;;;30.20;34.52
34237;BME280;20501;45.956;13.632;2022-08-03T11:08:46;100603.81;;;30.02;36.32
34237;BME280;20501;45.956;13.632;2022-08-03T11:14:02;100604.41;;;30.68;34.23
34237;BME280;20501;45.956;13.632;2022-08-03T11:16:30;100603.03;;;30.07;35.01
34237;BME280;20501;45.956;13.632;2022-08-03T11:19:00;100602.13;;;30.54;34.66
34237;BME280;20501;45.956;13.632;2022-08-03T11:30:08;100592.97;;;29.58;36.86
34237;BME280;20501;45.956;13.632;2022-08-03T11:37:34;100595.25;;;30.93;33.49
34237;BME280;20501;45.956;13.632;2022-08-03T11:40:00;100595.03;;;30.26;33.85
34237;BME280;20501;45.956;13.632;2022-08-03T11:44:56;100582.31;;;30.51;34.68
34237;BME280;20501;45.956;13.632;2022-08-03T11:47:24;100589.13;;;30.86;32.62
34237;BME280;20501;45.956;13.632;2022-08-03T11:49:54;100585.19;;;30.71;33.35
34237;BME280;20501;45.956;13.632;2022-08-03T11:52:20;100590.03;;;30.23;33.79
34237;BME280;20501;45.956;13.632;2022-08-03T11:54:49;100578.69;;;29.92;33.83
34237;BME280;20501;45.956;13.632;2022-08-03T11:57:28;100572.00;;;30.46;34.03
34237;BME280;20501;45.956;13.632;2022-08-03T11:59:54;100573.00;;;29.71;35.13
34237;BME280;20501;45.956;13.632;2022-08-03T12:02:19;100577.84;;;30.50;34.40
34237;BME280;20501;45.956;13.632;2022-08-03T12:04:58;100568.06;;;30.37;33.64
34237;BME280;20501;45.956;13.632;2022-08-03T12:07:28;100569.41;;;30.29;34.24
34237;BME280;20501;45.956;13.632;2022-08-03T12:10:08;100564.97;;;30.23;34.02
34237;BME280;20501;45.956;13.632;2022-08-03T12:12:35;100560.38;;;29.21;35.97
34237;BME280;20501;45.956;13.632;2022-08-03T12:15:01;100551.97;;;29.91;34.68
34237;BME280;20501;45.956;13.632;2022-08-03T12:17:37;100548.56;;;29.36;35.25
34237;BME280;20501;45.956;13.632;2022-08-03T12:20:04;100551.97;;;29.91;34.73
34237;BME280;20501;45.956;13.632;2022-08-03T12:22:32;100549.66;;;29.77;34.78
34237;BME280;20501;45.956;13.632;2022-08-03T12:24:57;100549.00;;;29.60;34.88
34237;BME280;20501;45.956;13.632;2022-08-03T12:27:24;100545.91;;;30.04;34.24
34237;BME280;20501;45.956;13.632;2022-08-03T12:29:51;100544.75;;;30.59;33.08
34237;BME280;20501;45.956;13.632;2022-08-03T12:32:17;100549.47;;;30.58;32.61
34237;BME280;20501;45.956;13.632;2022-08-03T12:34:49;100544.38;;;30.34;34.19
34237;BME280;20501;45.956;13.632;2022-08-03T12:37:21;100541.25;;;30.20;33.81
34237;BME280;20501;45.956;13.632;2022-08-03T12:39:51;100541.06;;;30.42;32.70
34237;BME280;20501;45.956;13.632;2022-08-03T12:42:17;100536.78;;;30.19;32.84
34237;BME280;20501;45.956;13.632;2022-08-03T12:44:43;100543.81;;;30.37;32.80
34237;BME280;20501;45.956;13.632;2022-08-03T12:47:10;100536.38;;;30.64;32.81
34237;BME280;20501;45.956;13.632;2022-08-03T12:49:52;100530.28;;;30.77;32.98
34237;BME280;20501;45.956;13.632;2022-08-03T12:52:20;100531.38;;;30.76;32.60
34237;BME280;20501;45.956;13.632;2022-08-03T12:54:57;100541.97;;;30.84;32.87
34237;BME280;20501;45.956;13.632;2022-08-03T12:57:41;100541.53;;;30.19;34.06
34237;BME280;20501;45.956;13.632;2022-08-03T13:00:11;100523.75;;;28.96;36.96
34237;BME280;20501;45.956;13.632;2022-08-03T13:02:37;100534.97;;;29.92;34.71
34237;BME280;20501;45.956;13.632;2022-08-03T13:05:09;100533.50;;;29.31;35.43
34237;BME280;20501;45.956;13.632;2022-08-03T13:07:40;100528.84;;;29.90;34.35
34237;BME280;20501;45.956;13.632;2022-08-03T13:10:06;100526.22;;;28.93;38.20
34237;BME280;20501;45.956;13.632;2022-08-03T13:12:31;100528.91;;;29.53;35.41